createdAt,value
2022-11-29T00:01:26.718Z,33.45
2022-11-29T00:03:53.815Z,24.17
2022-11-29T00:06:24.006Z,34.72
2022-11-29T00:08:50.778Z,32.67
2022-11-29T00:11:38.866Z,38.58
2022-11-29T00:14:10.578Z,36.60
2022-11-29T00:16:37.828Z,31.17
2022-11-29T00:19:04.594Z,35.35
2022-11-29T00:21:31.611Z,34.10
2022-11-29T00:23:58.422Z,32.03
2022-11-29T00:26:25.762Z,34.58
2022-11-29T00:28:53.062Z,30.92
2022-11-29T00:31:26.074Z,40.10
2022-11-29T00:33:53.263Z,34.08
2022-11-29T00:36:20.625Z,26.92
2022-11-29T00:38:47.458Z,32.00
2022-11-29T00:41:14.550Z,39.90
2022-11-29T00:43:41.650Z,45.53
2022-11-29T00:46:09.187Z,33.55
2022-11-29T00:48:36.623Z,36.22
2022-11-29T00:51:05.500Z,30.85
2022-11-29T00:53:33.155Z,21.45
2022-11-29T00:56:00.379Z,30.58
2022-11-29T00:58:28.181Z,26.27
2022-11-29T01:00:56.034Z,28.45
2022-11-29T01:03:23.271Z,29.63
2022-11-29T01:05:53.691Z,28.23
2022-11-29T01:08:20.500Z,29.38
2022-11-29T01:10:47.506Z,30.73
2022-11-29T01:13:14.571Z,24.52
2022-11-29T01:15:42.175Z,24.60
2022-11-29T01:18:10.974Z,26.67
2022-11-29T01:20:37.974Z,25.95
2022-11-29T01:23:04.753Z,27.17
2022-11-29T01:25:32.175Z,22.05
2022-11-29T01:27:59.003Z,22.10
2022-11-29T01:30:27.843Z,26.35
2022-11-29T01:32:54.600Z,24.25
2022-11-29T01:35:21.714Z,24.30
2022-11-29T01:37:48.758Z,26.60
2022-11-29T01:40:16.954Z,24.60
2022-11-29T01:42:43.702Z,24.50
2022-11-29T01:45:21.362Z,28.63
2022-11-29T01:47:49.828Z,28.20
2022-11-29T01:50:20.093Z,19.83
2022-11-29T01:52:47.923Z,26.58
2022-11-29T01:55:16.018Z,23.35
2022-11-29T01:57:44.079Z,24.50
2022-11-29T02:00:14.796Z,22.23
2022-11-29T02:02:54.230Z,19.10
2022-11-29T02:05:21.899Z,17.70
2022-11-29T02:07:52.335Z,21.13
2022-11-29T02:10:20.296Z,21.75
2022-11-29T02:13:07.072Z,19.27
2022-11-29T02:16:03.524Z,21.40
2022-11-29T02:18:51.258Z,20.63
2022-11-29T02:21:40.902Z,24.23
2022-11-29T02:24:35.516Z,22.40
2022-11-29T02:27:26.941Z,19.60
2022-11-29T02:30:17.721Z,20.65
2022-11-29T02:33:17.287Z,19.75
2022-11-29T02:36:23.891Z,23.10
2022-11-29T02:38:53.636Z,22.73
2022-11-29T02:42:12.333Z,23.27
2022-11-29T02:44:53.862Z,19.55
2022-11-29T02:48:00.525Z,24.10
2022-11-29T02:50:39.065Z,24.23
2022-11-29T02:53:11.883Z,23.08
2022-11-29T02:55:59.908Z,22.35
2022-11-29T02:58:35.433Z,19.80
2022-11-29T03:01:11.204Z,28.48
2022-11-29T03:04:09.042Z,23.65
2022-11-29T03:06:50.423Z,20.27
2022-11-29T03:09:23.206Z,26.90
2022-11-29T03:12:07.551Z,20.80
2022-11-29T03:17:45.834Z,20.80
2022-11-29T03:20:53.026Z,25.77
2022-11-29T03:23:34.385Z,25.00
2022-11-29T03:26:25.682Z,21.27
2022-11-29T03:29:17.443Z,27.48
2022-11-29T03:32:05.950Z,23.65
2022-11-29T03:34:45.914Z,26.33
2022-11-29T03:37:18.493Z,18.77
2022-11-29T03:40:11.865Z,24.58
2022-11-29T03:42:51.208Z,17.52
2022-11-29T03:45:27.625Z,30.30
2022-11-29T03:48:09.555Z,30.33
2022-11-29T03:50:41.850Z,29.05
2022-11-29T03:53:28.988Z,27.83
2022-11-29T03:56:01.134Z,26.80
2022-11-29T03:58:47.479Z,26.58
2022-11-29T04:01:35.802Z,24.55
2022-11-29T04:04:29.579Z,25.02
2022-11-29T04:07:16.580Z,22.50
2022-11-29T04:09:56.498Z,20.95
2022-11-29T04:12:48.889Z,19.58
2022-11-29T04:15:34.239Z,25.27
2022-11-29T04:18:32.293Z,27.65
2022-11-29T04:21:20.694Z,23.77
2022-11-29T04:24:29.186Z,29.45
2022-11-29T04:27:17.622Z,22.20
2022-11-29T04:29:50.443Z,24.92
2022-11-29T04:32:39.716Z,24.83
2022-11-29T04:35:06.674Z,19.98
2022-11-29T04:38:06.694Z,20.80
2022-11-29T04:40:36.606Z,26.17
2022-11-29T04:43:12.083Z,19.70
2022-11-29T04:45:52.693Z,22.40
2022-11-29T04:48:37.442Z,20.30
2022-11-29T04:51:13.612Z,20.40
2022-11-29T04:54:08.950Z,19.85
2022-11-29T04:57:28.507Z,19.60
2022-11-29T05:00:11.949Z,21.52
2022-11-29T05:02:51.130Z,23.67
2022-11-29T05:05:24.478Z,21.65
2022-11-29T05:08:31.048Z,20.83
2022-11-29T05:11:26.546Z,18.23
2022-11-29T05:14:15.014Z,17.52
2022-11-29T05:17:14.157Z,20.17
2022-11-29T05:20:18.571Z,22.25
2022-11-29T05:23:08.233Z,23.33
2022-11-29T05:25:44.227Z,23.00
2022-11-29T05:28:13.517Z,15.30
2022-11-29T05:30:49.718Z,17.60
2022-11-29T05:33:47.858Z,20.23
2022-11-29T05:36:33.395Z,21.77
2022-11-29T05:39:26.497Z,17.85
2022-11-29T05:42:14.918Z,19.95
2022-11-29T05:45:08.103Z,20.17
2022-11-29T05:47:57.658Z,18.83
2022-11-29T05:50:45.747Z,18.52
2022-11-29T05:53:28.231Z,24.70
2022-11-29T05:56:15.810Z,24.27
2022-11-29T05:58:55.795Z,26.20
2022-11-29T06:01:46.537Z,17.92
2022-11-29T06:04:41.112Z,22.55
2022-11-29T06:07:25.687Z,21.23
2022-11-29T06:10:01.527Z,26.25
2022-11-29T06:12:31.354Z,20.80
2022-11-29T06:15:17.263Z,20.27
2022-11-29T06:17:56.077Z,22.60
2022-11-29T06:20:38.238Z,24.27
2022-11-29T06:23:24.235Z,24.73
2022-11-29T06:26:04.335Z,25.33
2022-11-29T06:29:19.328Z,21.27
2022-11-29T06:32:17.443Z,23.52
2022-11-29T06:34:59.279Z,20.67
2022-11-29T06:38:02.009Z,23.55
2022-11-29T06:40:28.860Z,26.05
2022-11-29T06:42:55.893Z,22.80
2022-11-29T06:45:23.160Z,25.65
2022-11-29T06:48:04.754Z,21.52
2022-11-29T06:51:00.431Z,27.42
2022-11-29T06:53:54.243Z,24.67
2022-11-29T06:56:29.834Z,22.77
2022-11-29T06:59:17.239Z,19.13
2022-11-29T07:02:01.685Z,22.08
2022-11-29T07:04:48.546Z,20.80
2022-11-29T07:07:20.176Z,24.52
2022-11-29T07:09:50.792Z,29.73
2022-11-29T07:12:18.317Z,28.85
2022-11-29T07:14:46.433Z,25.27
2022-11-29T07:17:38.162Z,27.40
2022-11-29T07:20:20.608Z,22.65
2022-11-29T07:22:50.314Z,22.00
2022-11-29T07:25:53.560Z,31.48
2022-11-29T07:28:33.526Z,25.55
2022-11-29T07:31:06.296Z,32.10
2022-11-29T07:33:42.026Z,25.13
2022-11-29T07:36:19.154Z,26.38
2022-11-29T07:38:45.882Z,31.65
2022-11-29T07:41:46.486Z,27.23
2022-11-29T07:44:20.041Z,28.23
2022-11-29T07:49:13.853Z,24.40
2022-11-29T07:51:41.057Z,24.42
2022-11-29T07:54:07.881Z,23.55
2022-11-29T07:56:34.920Z,21.08
2022-11-29T07:59:01.905Z,21.50
2022-11-29T08:01:29.047Z,23.92
2022-11-29T08:03:55.793Z,26.70
2022-11-29T08:06:26.488Z,24.15
2022-11-29T08:08:53.275Z,21.42
2022-11-29T08:11:20.322Z,34.95
2022-11-29T08:13:47.094Z,27.80
2022-11-29T08:16:18.649Z,24.70
2022-11-29T08:18:45.579Z,26.02
2022-11-29T08:21:17.981Z,28.27
2022-11-29T08:23:49.314Z,28.38
2022-11-29T08:26:17.811Z,31.15
2022-11-29T08:28:45.139Z,28.02
2022-11-29T08:31:13.823Z,27.00
2022-11-29T08:33:42.910Z,30.20
2022-11-29T08:36:15.047Z,30.88
2022-11-29T08:38:41.828Z,24.05
2022-11-29T08:41:11.616Z,32.22
2022-11-29T08:43:38.481Z,29.35
2022-11-29T08:46:05.658Z,26.45
2022-11-29T08:48:32.556Z,30.35
2022-11-29T08:50:59.683Z,25.38
2022-11-29T08:53:43.634Z,35.28
2022-11-29T08:57:04.476Z,28.17
2022-11-29T08:59:04.709Z,23.20
2022-11-29T09:01:31.777Z,28.63
2022-11-29T09:04:06.435Z,26.63
2022-11-29T09:06:38.355Z,22.75
2022-11-29T09:09:05.853Z,22.50
2022-11-29T09:11:34.470Z,29.30
2022-11-29T09:14:05.035Z,29.45
2022-11-29T09:16:34.805Z,26.00
2022-11-29T09:19:01.977Z,29.30
2022-11-29T09:21:31.184Z,28.55
2022-11-29T09:24:05.509Z,23.95
2022-11-29T09:26:35.502Z,26.17
2022-11-29T09:29:05.369Z,25.52
2022-11-29T09:31:33.253Z,25.33
2022-11-29T09:34:00.522Z,28.65
2022-11-29T09:36:29.744Z,23.85
2022-11-29T09:39:02.812Z,26.75
2022-11-29T09:42:14.552Z,28.08
2022-11-29T09:45:00.771Z,22.92
2022-11-29T09:47:57.874Z,24.85
2022-11-29T09:50:33.191Z,32.58
2022-11-29T09:53:18.919Z,22.77
2022-11-29T09:56:23.675Z,30.80
2022-11-29T09:58:55.267Z,30.85
2022-11-29T10:01:26.990Z,28.98
2022-11-29T10:04:00.129Z,27.92
2022-11-29T10:06:38.909Z,32.88
2022-11-29T10:09:05.910Z,37.05
2022-11-29T10:11:43.858Z,31.50
2022-11-29T10:14:22.658Z,35.75
2022-11-29T10:17:01.206Z,31.48
2022-11-29T10:19:33.370Z,34.90
2022-11-29T10:22:07.607Z,30.88
2022-11-29T10:24:34.910Z,28.60
2022-11-29T10:27:01.853Z,42.78
2022-11-29T10:29:29.061Z,33.28
2022-11-29T10:31:57.458Z,31.50
2022-11-29T10:34:26.121Z,38.70
2022-11-29T10:36:59.536Z,36.58
2022-11-29T10:39:42.178Z,37.88
2022-11-29T10:42:40.897Z,37.05
2022-11-29T10:45:31.151Z,33.88
2022-11-29T10:48:19.820Z,31.58
2022-11-29T10:50:49.994Z,30.00
2022-11-29T10:53:23.194Z,26.77
2022-11-29T10:56:13.818Z,43.47
2022-11-29T10:59:05.378Z,31.13
2022-11-29T11:01:37.006Z,30.52
2022-11-29T11:04:07.526Z,34.35
2022-11-29T11:06:55.698Z,40.53
2022-11-29T11:09:36.485Z,39.17
2022-11-29T11:12:18.116Z,36.92
2022-11-29T11:14:47.025Z,35.80
2022-11-29T11:17:16.091Z,34.20
2022-11-29T11:19:43.067Z,43.50
2022-11-29T11:22:20.804Z,35.60
2022-11-29T11:24:58.179Z,33.22
2022-11-29T11:27:33.925Z,37.33
2022-11-29T11:30:02.736Z,36.65
2022-11-29T11:32:30.260Z,41.72
2022-11-29T11:34:59.758Z,35.25
2022-11-29T11:37:31.794Z,31.98
2022-11-29T11:40:20.876Z,38.42
2022-11-29T11:42:47.996Z,41.63
2022-11-29T11:45:14.670Z,40.58
2022-11-29T11:47:53.887Z,42.47
2022-11-29T11:50:49.907Z,40.00
2022-11-29T11:53:31.186Z,36.90
2022-11-29T11:56:01.683Z,41.55
2022-11-29T11:58:34.874Z,40.67
2022-11-29T12:01:30.284Z,43.10
2022-11-29T12:04:21.078Z,39.17
2022-11-29T12:07:00.511Z,43.65
2022-11-29T12:09:30.928Z,36.40
2022-11-29T12:12:11.582Z,34.08
2022-11-29T12:15:16.245Z,34.85
2022-11-29T12:18:03.627Z,33.30
2022-11-29T12:20:37.011Z,30.30
2022-11-29T12:23:12.921Z,42.97
2022-11-29T12:25:52.492Z,43.08
2022-11-29T12:28:21.121Z,39.97
2022-11-29T12:31:06.455Z,36.70
2022-11-29T12:34:05.458Z,44.50
2022-11-29T12:36:47.348Z,43.30
2022-11-29T12:39:16.910Z,47.85
2022-11-29T12:42:05.703Z,42.03
2022-11-29T12:44:39.545Z,38.83
2022-11-29T12:50:05.514Z,40.95
2022-11-29T12:52:42.482Z,42.45
2022-11-29T12:55:33.669Z,37.85
2022-11-29T12:58:23.934Z,35.97
2022-11-29T13:01:20.188Z,36.45
2022-11-29T13:03:56.054Z,37.08
2022-11-29T13:06:49.077Z,37.30
2022-11-29T13:09:38.817Z,36.90
2022-11-29T13:12:13.022Z,40.30
2022-11-29T13:14:51.051Z,41.85
2022-11-29T13:17:48.756Z,36.38
2022-11-29T13:20:34.701Z,35.35
2022-11-29T13:23:46.104Z,40.13
2022-11-29T13:26:26.157Z,47.28
2022-11-29T13:28:54.242Z,39.63
2022-11-29T13:31:23.367Z,42.40
2022-11-29T13:33:55.874Z,41.67
2022-11-29T13:36:32.057Z,45.58
2022-11-29T13:39:36.288Z,40.00
2022-11-29T13:42:18.161Z,47.63
2022-11-29T13:45:02.974Z,36.10
2022-11-29T13:47:30.058Z,37.42
2022-11-29T13:50:04.092Z,40.00
2022-11-29T13:52:39.476Z,40.10
2022-11-29T13:55:12.022Z,42.78
2022-11-29T13:58:21.987Z,44.13
2022-11-29T14:00:51.369Z,46.20
2022-11-29T14:03:24.619Z,37.72
2022-11-29T14:06:08.853Z,36.53
2022-11-29T14:09:17.737Z,40.63
2022-11-29T14:11:50.487Z,34.58
2022-11-29T14:14:36.246Z,38.53
2022-11-29T14:17:05.630Z,38.70
2022-11-29T14:19:35.147Z,39.80
2022-11-29T14:22:01.891Z,37.90
2022-11-29T14:24:32.018Z,38.40
2022-11-29T14:27:12.229Z,33.38
2022-11-29T14:29:52.640Z,33.85
2022-11-29T14:33:01.198Z,37.95
2022-11-29T14:35:39.584Z,31.73
2022-11-29T14:38:31.110Z,42.30
2022-11-29T14:41:24.469Z,42.10
2022-11-29T14:44:24.983Z,38.33
2022-11-29T14:47:18.777Z,39.10
2022-11-29T14:49:46.151Z,39.87
2022-11-29T14:52:13.159Z,40.05
2022-11-29T14:54:56.267Z,38.45
2022-11-29T14:57:51.847Z,43.28
2022-11-29T15:00:28.600Z,42.45
2022-11-29T15:03:02.337Z,47.00
2022-11-29T15:05:36.229Z,40.45
2022-11-29T15:08:26.743Z,35.65
2022-11-29T15:11:04.704Z,42.88
2022-11-29T15:13:35.510Z,43.13
2022-11-29T15:16:20.309Z,41.70
2022-11-29T15:19:25.667Z,39.35
2022-11-29T15:22:09.693Z,42.70
2022-11-29T15:24:50.281Z,45.50
2022-11-29T15:27:18.266Z,39.28
2022-11-29T15:29:48.625Z,53.13
2022-11-29T15:32:28.099Z,41.30
2022-11-29T15:34:56.383Z,49.05
2022-11-29T15:37:32.181Z,46.08
2022-11-29T15:40:31.479Z,43.95
2022-11-29T15:43:33.679Z,38.78
2022-11-29T15:46:04.090Z,45.83
2022-11-29T15:48:32.494Z,48.00
2022-11-29T15:51:16.227Z,47.80
2022-11-29T15:54:12.274Z,38.13
2022-11-29T15:56:49.034Z,44.38
2022-11-29T15:59:26.032Z,51.53
2022-11-29T16:01:55.385Z,51.00
2022-11-29T16:04:24.425Z,39.72
2022-11-29T16:06:51.965Z,39.45
2022-11-29T16:09:44.288Z,44.80
2022-11-29T16:12:14.645Z,37.35
2022-11-29T16:14:58.951Z,47.42
2022-11-29T16:17:34.879Z,39.63
2022-11-29T16:20:23.449Z,44.00
2022-11-29T16:23:32.131Z,44.40
2022-11-29T16:26:04.834Z,43.40
2022-11-29T16:28:36.555Z,52.05
2022-11-29T16:31:04.982Z,46.88
2022-11-29T16:33:32.464Z,47.25
2022-11-29T16:36:11.604Z,48.85
2022-11-29T16:38:45.619Z,44.75
2022-11-29T16:41:23.135Z,55.85
2022-11-29T16:43:54.074Z,49.15
2022-11-29T16:46:20.912Z,47.65
2022-11-29T16:48:50.000Z,51.38
2022-11-29T16:51:31.908Z,51.33
2022-11-29T16:54:21.197Z,44.83
2022-11-29T16:56:49.522Z,46.85
2022-11-29T16:59:27.650Z,48.75
2022-11-29T17:01:56.352Z,48.03
2022-11-29T17:04:25.015Z,50.58
2022-11-29T17:06:56.238Z,45.90
2022-11-29T17:09:27.035Z,44.42
2022-11-29T17:11:54.836Z,44.72
2022-11-29T17:14:22.416Z,50.00
2022-11-29T17:16:49.777Z,46.92
2022-11-29T17:19:17.703Z,50.33
2022-11-29T17:21:45.174Z,51.85
2022-11-29T17:24:14.398Z,46.40
2022-11-29T17:26:42.372Z,45.45
2022-11-29T17:29:14.873Z,52.78
2022-11-29T17:31:43.640Z,47.25
2022-11-29T17:34:11.089Z,50.30
2022-11-29T17:36:38.178Z,56.83
2022-11-29T17:39:05.875Z,55.78
2022-11-29T17:41:33.787Z,51.47
2022-11-29T17:44:01.225Z,55.75
2022-11-29T17:46:36.454Z,53.25
2022-11-29T17:49:06.812Z,56.92
2022-11-29T17:51:52.368Z,47.55
2022-11-29T17:54:21.174Z,54.88
2022-11-29T17:56:47.994Z,50.33
2022-11-29T17:59:15.003Z,48.15
2022-11-29T18:01:41.899Z,44.42
2022-11-29T18:04:09.062Z,57.95
2022-11-29T18:06:40.614Z,65.53
2022-11-29T18:09:09.034Z,50.75
2022-11-29T18:11:47.096Z,51.33
2022-11-29T18:14:18.762Z,49.70
2022-11-29T18:16:45.902Z,55.13
2022-11-29T18:19:15.973Z,55.47
2022-11-29T18:21:42.862Z,48.25
2022-11-29T18:24:10.529Z,56.28
2022-11-29T18:26:38.271Z,60.78
2022-11-29T18:29:06.233Z,47.00
2022-11-29T18:31:36.117Z,48.15
2022-11-29T18:34:11.894Z,50.78
2022-11-29T18:36:42.978Z,58.92
2022-11-29T18:39:16.639Z,62.03
2022-11-29T18:41:46.489Z,53.67
2022-11-29T18:44:15.592Z,48.45
2022-11-29T18:46:43.992Z,54.67
2022-11-29T18:49:14.078Z,55.78
2022-11-29T18:51:44.423Z,49.33
2022-11-29T18:54:12.280Z,49.28
2022-11-29T18:56:39.527Z,47.70
2022-11-29T18:59:12.651Z,57.75
2022-11-29T19:01:42.617Z,48.15
2022-11-29T19:04:15.085Z,47.53
2022-11-29T19:06:42.684Z,44.67
2022-11-29T19:09:15.800Z,54.05
2022-11-29T19:11:43.732Z,42.45
2022-11-29T19:14:12.793Z,50.47
2022-11-29T19:16:45.555Z,50.75
2022-11-29T19:19:13.213Z,54.93
2022-11-29T19:21:40.755Z,48.47
2022-11-29T19:24:14.068Z,44.78
2022-11-29T19:26:44.372Z,55.17
2022-11-29T19:29:12.631Z,45.75
2022-11-29T19:31:39.450Z,60.35
2022-11-29T19:34:06.934Z,52.38
2022-11-29T19:36:34.031Z,49.30
2022-11-29T19:39:02.178Z,49.70
2022-11-29T19:41:33.952Z,55.78
2022-11-29T19:44:03.630Z,50.17
2022-11-29T19:46:33.965Z,56.90
2022-11-29T19:49:03.160Z,56.08
2022-11-29T19:51:30.423Z,57.67
2022-11-29T19:54:00.174Z,58.30
2022-11-29T19:56:28.110Z,57.90
2022-11-29T19:58:55.387Z,54.40
2022-11-29T20:01:36.042Z,56.78
2022-11-29T20:04:07.565Z,52.83
2022-11-29T20:06:34.621Z,53.97
2022-11-29T20:09:02.253Z,57.75
2022-11-29T20:11:29.555Z,45.03
2022-11-29T20:13:59.413Z,50.47
2022-11-29T20:16:27.554Z,47.85
2022-11-29T20:18:56.109Z,46.97
2022-11-29T20:21:31.267Z,46.97
2022-11-29T20:24:04.824Z,49.83
2022-11-29T20:26:34.316Z,52.50
2022-11-29T20:29:02.226Z,45.05
2022-11-29T20:31:30.072Z,52.05
2022-11-29T20:33:57.565Z,49.83
2022-11-29T20:36:55.283Z,49.47
2022-11-29T20:39:31.809Z,42.00
2022-11-29T20:42:29.496Z,54.65
2022-11-29T20:45:02.079Z,45.17
2022-11-29T20:47:50.481Z,45.55
2022-11-29T20:50:30.542Z,44.63
2022-11-29T20:53:12.858Z,48.03
2022-11-29T20:55:45.005Z,47.25
2022-11-29T20:58:15.138Z,38.47
2022-11-29T21:00:42.276Z,43.67
2022-11-29T21:03:13.569Z,34.45
2022-11-29T21:05:40.675Z,37.72
2022-11-29T21:08:07.676Z,46.38
2022-11-29T21:10:34.735Z,41.80
2022-11-29T21:13:02.003Z,38.75
2022-11-29T21:15:29.422Z,36.22
2022-11-29T21:17:56.543Z,46.00
2022-11-29T21:20:26.407Z,43.08
2022-11-29T21:23:03.067Z,38.17
2022-11-29T21:25:44.752Z,43.40
2022-11-29T21:28:14.579Z,37.65
2022-11-29T21:30:42.815Z,40.45
2022-11-29T21:33:09.870Z,42.33
2022-11-29T21:35:39.864Z,38.00
2022-11-29T21:38:12.017Z,47.50
2022-11-29T21:40:39.078Z,49.28
2022-11-29T21:43:05.873Z,41.20
2022-11-29T21:45:32.980Z,45.15
2022-11-29T21:48:00.911Z,46.00
2022-11-29T21:50:28.057Z,43.58
2022-11-29T21:52:54.861Z,40.35
2022-11-29T21:55:21.899Z,39.08
2022-11-29T21:57:48.612Z,46.25
2022-11-29T22:00:16.018Z,54.88
2022-11-29T22:02:42.846Z,45.10
2022-11-29T22:05:10.108Z,43.45
2022-11-29T22:07:36.877Z,47.78
2022-11-29T22:10:11.720Z,47.45
2022-11-29T22:12:49.378Z,41.45
2022-11-29T22:15:24.256Z,40.67
2022-11-29T22:17:51.986Z,44.55
2022-11-29T22:20:19.604Z,46.17
2022-11-29T22:22:48.457Z,45.80
2022-11-29T22:25:15.912Z,54.95
2022-11-29T22:27:42.717Z,43.47
2022-11-29T22:30:10.077Z,44.67
2022-11-29T22:32:36.819Z,49.15
2022-11-29T22:35:04.012Z,46.47
2022-11-29T22:37:30.750Z,45.10
2022-11-29T22:40:00.385Z,44.47
2022-11-29T22:42:27.134Z,49.83
2022-11-29T22:44:54.495Z,45.30
2022-11-29T22:47:21.235Z,48.88
2022-11-29T22:49:49.649Z,44.50
2022-11-29T22:52:16.478Z,48.55
2022-11-29T22:54:43.539Z,50.72
2022-11-29T22:57:10.435Z,50.78
2022-11-29T22:59:37.473Z,47.42
2022-11-29T23:02:04.281Z,51.38
2022-11-29T23:04:31.360Z,51.30
2022-11-29T23:06:58.142Z,47.38
2022-11-29T23:09:25.275Z,47.10
2022-11-29T23:11:54.237Z,47.28
2022-11-29T23:14:22.429Z,47.42
2022-11-29T23:16:52.777Z,48.85
2022-11-29T23:19:19.922Z,45.13
2022-11-29T23:21:47.253Z,55.20
2022-11-29T23:24:15.276Z,49.03
2022-11-29T23:26:45.494Z,46.45
2022-11-29T23:29:15.194Z,43.30
2022-11-29T23:31:42.376Z,46.72
2022-11-29T23:34:09.634Z,43.65
2022-11-29T23:36:36.436Z,55.03
2022-11-29T23:39:07.722Z,41.95
2022-11-29T23:41:36.382Z,42.50
2022-11-29T23:44:04.993Z,50.67
2022-11-29T23:46:32.243Z,57.97
2022-11-29T23:48:59.258Z,48.88
2022-11-29T23:51:26.200Z,44.20
2022-11-29T23:53:54.255Z,47.35
2022-11-29T23:56:22.211Z,49.20
2022-11-29T23:58:49.545Z,41.80
